Time;durP1;ratioP1;P1;durP2;ratioP2;P2;SDS_P1;SDS_P2;PMS_P1;PMS_P2;Temp;Humidity;BMP_temperature;BMP_pressure;BME280_temperature;BME280_humidity;BME280_pressure;Samples;Min_cycle;Max_cycle;Signal;HPM_P1;HPM_P2
2021/12/25 00:01:41;;;;;;;6.53;1.20;;;-0.60;99.90;;;;;;5117495;27;20049;-79
2021/12/25 00:04:08;;;;;;;1.35;0.70;;;-0.60;99.90;;;;;;5110391;28;20046;-80
2021/12/25 00:06:35;;;;;;;6.40;1.10;;;-0.70;99.90;;;;;;5100508;28;20066;-79
2021/12/25 00:09:00;;;;;;;7.97;1.70;;;-0.70;99.90;;;;;;5115377;27;20044;-79
2021/12/25 00:11:26;;;;;;;3.78;1.25;;;-0.70;99.90;;;;;;5106671;27;20548;-80
2021/12/25 00:13:52;;;;;;;4.28;0.95;;;-0.70;99.90;;;;;;5134511;27;20050;-78
2021/12/25 00:16:18;;;;;;;5.85;1.00;;;-0.80;99.90;;;;;;5117321;27;20119;-79
2021/12/25 00:18:43;;;;;;;6.88;1.02;;;-0.90;99.90;;;;;;5134793;27;20046;-80
2021/12/25 00:21:09;;;;;;;6.00;1.35;;;-0.90;99.90;;;;;;5099367;27;20054;-80
2021/12/25 00:23:37;;;;;;;9.60;1.20;;;-1.00;99.90;;;;;;5118047;27;20046;-81
2021/12/25 00:26:09;;;;;;;5.57;1.10;;;-1.10;99.90;;;;;;5134263;27;20046;-81
2021/12/25 00:28:47;;;;;;;3.65;1.00;;;-1.20;99.90;;;;;;5115095;27;20038;-81
2021/12/25 00:36:14;;;;;;;5.13;1.00;;;-1.50;99.90;;;;;;5137067;27;20513;-84
2021/12/25 00:38:42;;;;;;;3.63;1.27;;;-1.60;99.90;;;;;;5119464;27;20047;-80
2021/12/25 00:41:09;;;;;;;5.22;1.45;;;-1.60;99.90;;;;;;5115047;27;20047;-80
2021/12/25 00:43:34;;;;;;;8.25;1.60;;;-1.70;99.90;;;;;;5110192;27;20040;-80
2021/12/25 00:46:00;;;;;;;5.05;1.02;;;-1.70;99.90;;;;;;5120868;27;20126;-80
2021/12/25 00:48:27;;;;;;;7.65;1.15;;;-1.70;99.90;;;;;;5133682;27;20615;-80
2021/12/25 00:50:52;;;;;;;3.40;0.93;;;-1.80;99.90;;;;;;5137862;27;20042;-80
2021/12/25 00:53:18;;;;;;;3.60;1.25;;;-1.80;99.90;;;;;;5138551;27;20484;-80
2021/12/25 00:55:44;;;;;;;4.35;1.00;;;-1.90;99.90;;;;;;5087767;27;20479;-80
2021/12/25 00:58:10;;;;;;;4.95;0.80;;;-1.90;99.90;;;;;;5121628;27;20047;-80
2021/12/25 01:00:36;;;;;;;4.78;0.88;;;-2.00;99.90;;;;;;5120549;27;20762;-79
2021/12/25 01:03:02;;;;;;;7.90;0.98;;;-2.00;99.90;;;;;;5137701;27;20483;-81
2021/12/25 01:05:28;;;;;;;4.32;0.80;;;-2.00;99.90;;;;;;5104207;27;20039;-80
2021/12/25 01:07:54;;;;;;;3.10;0.80;;;-2.10;99.90;;;;;;5118571;27;20368;-79
2021/12/25 01:10:21;;;;;;;3.63;0.70;;;-2.10;99.90;;;;;;5113429;27;20046;-79
2021/12/25 01:35:01;;;;;;;2.38;0.70;;;-2.40;99.90;;;;;;5126282;27;20054;-79
2021/12/25 01:39:45;;;;;;;3.03;0.80;;;-2.50;99.90;;;;;;5136726;27;20072;-81
2021/12/25 01:47:52;;;;;;;2.85;0.60;;;-2.60;99.90;;;;;;5138757;27;20373;-81
2021/12/25 01:50:21;;;;;;;3.30;0.80;;;-2.60;99.90;;;;;;5115351;27;20083;-82
2021/12/25 01:52:48;;;;;;;3.33;0.70;;;-2.60;99.90;;;;;;5128684;27;20060;-82
2021/12/25 01:55:23;;;;;;;2.53;0.70;;;-2.70;99.90;;;;;;5119843;27;20506;-80
2021/12/25 01:57:49;;;;;;;4.05;0.50;;;-2.70;99.90;;;;;;5120091;27;20054;-82
2021/12/25 02:00:26;;;;;;;2.70;0.63;;;-2.80;99.90;;;;;;5119230;27;20046;-82
2021/12/25 02:02:52;;;;;;;3.13;0.80;;;-2.80;99.90;;;;;;5137324;27;20065;-82
2021/12/25 02:05:19;;;;;;;4.45;0.80;;;-2.80;99.90;;;;;;5119439;27;20051;-81
2021/12/25 02:07:45;;;;;;;2.25;0.60;;;-2.90;99.90;;;;;;5137839;27;20066;-81
2021/12/25 02:10:12;;;;;;;5.07;1.02;;;-2.90;99.90;;;;;;5136577;27;20551;-81
2021/12/25 02:12:38;;;;;;;2.08;0.77;;;-2.90;99.90;;;;;;5102596;27;20483;-81
2021/12/25 02:15:13;;;;;;;2.33;0.88;;;-2.80;99.90;;;;;;5126316;27;20058;-82
2021/12/25 02:20:30;;;;;;;6.70;0.90;;;-2.90;99.90;;;;;;5131380;27;20047;-83
2021/12/25 02:23:02;;;;;;;3.60;0.70;;;-3.00;99.90;;;;;;5132385;27;20046;-84
2021/12/25 02:25:31;;;;;;;2.15;0.47;;;-3.00;99.90;;;;;;5119358;27;20512;-82
2021/12/25 02:27:57;;;;;;;4.35;0.70;;;-3.00;99.90;;;;;;5135236;27;20054;-82
2021/12/25 02:30:22;;;;;;;3.00;0.70;;;-3.00;99.90;;;;;;5135750;27;20118;-81
2021/12/25 02:32:48;;;;;;;2.58;0.80;;;-3.00;99.90;;;;;;5097220;27;20047;-81
2021/12/25 02:35:15;;;;;;;2.65;0.60;;;-3.00;99.90;;;;;;5091039;27;20049;-81
2021/12/25 02:37:41;;;;;;;3.63;0.90;;;-3.10;99.90;;;;;;5119469;27;20053;-81
2021/12/25 02:40:08;;;;;;;4.38;0.73;;;-3.10;99.90;;;;;;5136644;27;20054;-81
2021/12/25 02:42:35;;;;;;;5.13;0.82;;;-3.10;99.90;;;;;;5099920;27;20075;-81
2021/12/25 02:45:06;;;;;;;2.80;0.75;;;-3.10;99.90;;;;;;5135718;27;20046;-82
2021/12/25 02:47:32;;;;;;;2.63;0.77;;;-3.10;99.90;;;;;;5119366;27;20039;-79
2021/12/25 02:49:58;;;;;;;3.10;1.40;;;-3.20;99.90;;;;;;5135741;27;20065;-82
2021/12/25 02:52:24;;;;;;;5.40;0.90;;;-3.20;99.90;;;;;;5133377;27;20491;-79
2021/12/25 02:54:50;;;;;;;4.50;0.55;;;-3.20;99.90;;;;;;5094172;27;20050;-80
2021/12/25 02:57:16;;;;;;;3.88;0.80;;;-3.20;99.90;;;;;;5135757;27;20042;-80
2021/12/25 02:59:42;;;;;;;1.20;0.55;;;-3.30;99.90;;;;;;5100757;27;20500;-81
2021/12/25 03:02:12;;;;;;;3.75;0.80;;;-3.30;99.90;;;;;;5118285;27;20043;-82
2021/12/25 03:04:43;;;;;;;6.85;1.13;;;-3.30;99.90;;;;;;5116861;27;20050;-83
2021/12/25 03:07:10;;;;;;;3.65;1.15;;;-3.30;99.90;;;;;;5135891;27;20086;-81
2021/12/25 03:09:36;;;;;;;3.42;0.77;;;-3.40;99.90;;;;;;5134308;27;20115;-84
2021/12/25 03:12:05;;;;;;;3.58;1.00;;;-3.40;99.90;;;;;;5131698;27;20047;-82
2021/12/25 03:14:51;;;;;;;1.42;0.75;;;-3.40;99.90;;;;;;5114822;27;20047;-81
2021/12/25 03:17:17;;;;;;;3.00;0.63;;;-3.40;99.90;;;;;;5131344;27;20164;-86
2021/12/25 03:19:42;;;;;;;3.50;0.80;;;-3.50;99.90;;;;;;5115140;27;20039;-82
2021/12/25 03:22:08;;;;;;;1.73;0.70;;;-3.50;99.90;;;;;;5132174;27;20050;-81
2021/12/25 03:24:34;;;;;;;1.70;0.70;;;-3.50;99.90;;;;;;5114866;27;20590;-81
2021/12/25 03:27:00;;;;;;;2.22;0.60;;;-3.60;99.90;;;;;;5097392;27;20047;-83
2021/12/25 03:29:26;;;;;;;7.55;0.60;;;-3.60;99.90;;;;;;5086703;27;20047;-83
2021/12/25 03:31:53;;;;;;;3.30;0.93;;;-3.60;99.90;;;;;;5131722;27;20118;-82
2021/12/25 03:34:19;;;;;;;1.13;0.70;;;-3.70;99.90;;;;;;5083232;28;20718;-84
2021/12/25 03:36:45;;;;;;;1.10;0.50;;;-3.70;99.90;;;;;;5107710;28;20046;-82
2021/12/25 03:39:12;;;;;;;1.42;0.70;;;-3.70;99.90;;;;;;5107981;28;20054;-81
2021/12/25 03:41:38;;;;;;;3.72;0.57;;;-3.70;99.90;;;;;;5111146;28;20082;-82
2021/12/25 03:44:04;;;;;;;2.80;0.70;;;-3.70;99.90;;;;;;5096295;27;20086;-81
2021/12/25 03:46:31;;;;;;;1.30;0.47;;;-3.80;99.90;;;;;;5127249;27;20042;-83
2021/12/25 03:49:26;;;;;;;5.03;1.10;;;-3.80;99.90;;;;;;5107983;28;20063;-82
2021/12/25 03:57:39;;;;;;;2.47;0.68;;;-3.90;99.90;;;;;;5131220;28;20062;-83
2021/12/25 04:00:07;;;;;;;3.13;0.70;;;-3.90;99.90;;;;;;5131527;28;20086;-81
2021/12/25 04:02:37;;;;;;;2.33;0.98;;;-3.90;99.90;;;;;;5112901;28;20523;-82
2021/12/25 04:05:06;;;;;;;5.72;0.82;;;-3.90;99.90;;;;;;5098834;27;20054;-83
2021/12/25 04:10:16;;;;;;;1.55;0.47;;;-4.00;99.90;;;;;;5113355;27;20511;-82
2021/12/25 04:12:42;;;;;;;6.30;0.73;;;-4.00;99.90;;;;;;5114536;28;20051;-83
2021/12/25 04:15:08;;;;;;;5.15;0.70;;;-4.00;99.90;;;;;;5114733;28;20392;-84
2021/12/25 04:17:33;;;;;;;2.90;0.60;;;-4.00;99.90;;;;;;5087443;28;20051;-85
2021/12/25 04:20:02;;;;;;;4.70;0.70;;;-4.10;99.90;;;;;;5116140;27;20047;-84
2021/12/25 04:22:36;;;;;;;1.85;0.50;;;-4.10;99.90;;;;;;5118160;27;20050;-83
2021/12/25 04:25:02;;;;;;;3.95;0.70;;;-4.10;99.90;;;;;;5080560;28;20043;-83
2021/12/25 04:27:28;;;;;;;3.80;0.50;;;-4.10;99.90;;;;;;5128675;27;20039;-82
2021/12/25 04:30:01;;;;;;;1.55;0.70;;;-4.10;99.90;;;;;;5100933;27;20043;-84
2021/12/25 04:32:54;;;;;;;3.08;0.52;;;-4.20;99.90;;;;;;5112927;27;20051;-83
2021/12/25 05:04:38;;;;;;;2.58;0.57;;;-4.40;99.90;;;;;;5134447;27;20374;-83
2021/12/25 05:07:08;;;;;;;2.88;0.57;;;-4.40;99.90;;;;;;5105027;27;20055;-84
2021/12/25 05:09:34;;;;;;;1.08;0.63;;;-4.40;99.90;;;;;;5113710;28;20042;-83
2021/12/25 05:12:00;;;;;;;2.63;0.70;;;-4.50;99.90;;;;;;5125827;27;20047;-83
2021/12/25 05:14:26;;;;;;;2.83;0.50;;;-4.50;99.90;;;;;;5110403;27;20478;-84
2021/12/25 05:16:52;;;;;;;4.15;0.63;;;-4.50;99.90;;;;;;5134630;27;20317;-87
2021/12/25 05:19:18;;;;;;;2.60;0.50;;;-4.50;99.90;;;;;;5083867;27;20387;-86
2021/12/25 05:21:44;;;;;;;3.38;0.88;;;-4.40;99.90;;;;;;5135673;27;20051;-85
2021/12/25 05:24:11;;;;;;;1.70;0.60;;;-4.40;99.90;;;;;;5118483;27;20047;-83
2021/12/25 05:26:36;;;;;;;3.30;0.80;;;-4.40;99.90;;;;;;5118297;27;20046;-83
2021/12/25 05:29:03;;;;;;;2.72;1.38;;;-4.40;99.90;;;;;;5101008;27;20047;-83
2021/12/25 05:31:34;;;;;;;1.73;0.70;;;-4.40;99.90;;;;;;5109919;28;20512;-83
2021/12/25 05:33:59;;;;;;;3.85;0.60;;;-4.50;99.90;;;;;;5099665;27;20087;-83
2021/12/25 05:36:27;;;;;;;2.10;0.63;;;-4.50;99.90;;;;;;5099781;27;20420;-83
2021/12/25 05:38:57;;;;;;;1.67;0.60;;;-4.50;99.90;;;;;;5112261;27;20039;-83
2021/12/25 05:41:28;;;;;;;2.22;0.57;;;-4.50;99.90;;;;;;5096410;28;20047;-82
2021/12/25 05:43:54;;;;;;;1.80;0.70;;;-4.50;99.90;;;;;;5115145;27;20122;-82
2021/12/25 05:46:20;;;;;;;1.23;0.80;;;-4.60;99.90;;;;;;5117398;27;20058;-82
2021/12/25 05:48:48;;;;;;;1.30;0.40;;;-4.60;99.90;;;;;;5117233;27;20043;-83
2021/12/25 05:51:15;;;;;;;2.13;0.65;;;-4.60;99.90;;;;;;5100735;27;20039;-84
2021/12/25 05:53:40;;;;;;;1.88;0.50;;;-4.70;99.90;;;;;;5117081;27;20077;-84
2021/12/25 05:56:06;;;;;;;1.33;0.73;;;-4.70;99.90;;;;;;5100680;27;20421;-84
2021/12/25 05:58:32;;;;;;;3.42;0.68;;;-4.80;99.90;;;;;;5095296;28;20126;-82
2021/12/25 06:00:58;;;;;;;1.17;0.57;;;-4.80;99.90;;;;;;5102757;28;20083;-82
2021/12/25 06:03:24;;;;;;;2.28;0.50;;;-4.80;99.90;;;;;;5110286;28;20058;-83
2021/12/25 06:05:49;;;;;;;1.13;0.50;;;-4.80;99.90;;;;;;5112305;27;20046;-82
2021/12/25 06:08:15;;;;;;;3.40;0.95;;;-4.90;99.90;;;;;;5134362;27;20120;-83
2021/12/25 06:10:43;;;;;;;1.67;0.52;;;-4.90;99.90;;;;;;5099169;27;20043;-83
2021/12/25 06:13:14;;;;;;;1.17;0.57;;;-4.90;99.90;;;;;;5133077;27;20051;-82
2021/12/25 06:15:41;;;;;;;2.45;0.60;;;-4.90;99.90;;;;;;5116847;27;20050;-90
2021/12/25 06:18:08;;;;;;;1.70;0.52;;;-4.90;99.90;;;;;;5095140;27;20143;-82
2021/12/25 06:20:34;;;;;;;2.15;0.63;;;-5.00;99.90;;;;;;5116264;27;20388;-87
2021/12/25 06:23:00;;;;;;;1.80;0.70;;;-5.00;99.90;;;;;;5097577;27;20043;-82
2021/12/25 06:25:26;;;;;;;3.90;0.60;;;-5.00;99.90;;;;;;5116824;27;20047;-85
2021/12/25 06:27:52;;;;;;;2.25;0.70;;;-5.00;99.90;;;;;;5110628;28;20112;-83
2021/12/25 06:30:17;;;;;;;1.40;0.60;;;-5.00;99.90;;;;;;5096232;27;20122;-83
2021/12/25 06:32:43;;;;;;;3.47;0.82;;;-5.00;99.90;;;;;;5077732;28;20043;-84
2021/12/25 06:35:09;;;;;;;2.10;0.70;;;-5.00;99.90;;;;;;5106936;27;20055;-83
2021/12/25 06:37:35;;;;;;;2.25;0.40;;;-5.10;99.90;;;;;;5130216;27;20050;-83
2021/12/25 06:40:01;;;;;;;1.67;0.55;;;-5.10;99.90;;;;;;5094778;28;20636;-82
2021/12/25 06:42:27;;;;;;;1.95;0.50;;;-5.10;99.90;;;;;;5097516;27;20051;-83
2021/12/25 06:44:55;;;;;;;2.63;0.50;;;-5.10;99.90;;;;;;5099246;27;20514;-82
2021/12/25 06:47:20;;;;;;;2.13;0.60;;;-5.10;99.90;;;;;;5133265;27;20082;-83
2021/12/25 06:49:46;;;;;;;1.90;0.75;;;-5.10;99.90;;;;;;5102216;28;20071;-86
2021/12/25 06:52:12;;;;;;;1.55;0.70;;;-5.10;99.90;;;;;;5088724;28;20503;-84
2021/12/25 06:54:37;;;;;;;2.80;0.98;;;-5.10;99.90;;;;;;5113528;27;20415;-83
2021/12/25 06:57:03;;;;;;;4.60;0.88;;;-5.20;99.90;;;;;;5086566;28;20197;-82
2021/12/25 06:59:30;;;;;;;1.88;0.60;;;-5.20;99.90;;;;;;5113423;27;20039;-82
2021/12/25 07:01:56;;;;;;;5.00;1.55;;;-5.20;99.90;;;;;;5126745;27;20444;-82
2021/12/25 07:04:22;;;;;;;1.85;0.70;;;-5.30;99.90;;;;;;5115338;27;20051;-83
2021/12/25 07:06:47;;;;;;;1.23;0.50;;;-5.30;99.90;;;;;;5097894;27;20111;-87
2021/12/25 07:09:13;;;;;;;4.95;0.60;;;-5.30;99.90;;;;;;5115162;27;20525;-85
2021/12/25 07:11:39;;;;;;;2.72;0.50;;;-5.30;99.90;;;;;;5135147;27;20046;-85
2021/12/25 07:14:08;;;;;;;1.98;0.52;;;-5.30;99.90;;;;;;5132985;27;20118;-85
2021/12/25 07:16:34;;;;;;;1.80;0.63;;;-5.30;99.90;;;;;;5119012;27;20050;-83
2021/12/25 07:19:00;;;;;;;1.83;0.57;;;-5.30;99.90;;;;;;5110530;27;20415;-83
2021/12/25 07:21:26;;;;;;;2.60;0.80;;;-5.30;99.90;;;;;;5090238;27;20074;-83
2021/12/25 07:23:52;;;;;;;2.60;0.75;;;-5.30;99.90;;;;;;5097538;27;20134;-84
2021/12/25 07:26:18;;;;;;;1.77;0.65;;;-5.30;99.90;;;;;;5081185;27;20138;-83
2021/12/25 07:28:48;;;;;;;1.90;0.73;;;-5.30;99.90;;;;;;5099437;27;20480;-82
2021/12/25 07:31:15;;;;;;;4.32;0.70;;;-5.30;99.90;;;;;;5101426;27;20074;-82
2021/12/25 07:33:42;;;;;;;2.10;0.80;;;-5.30;99.90;;;;;;5135594;27;20038;-83
2021/12/25 07:36:12;;;;;;;3.65;0.93;;;-5.30;99.90;;;;;;5093453;27;20047;-81
2021/12/25 07:38:38;;;;;;;5.80;0.82;;;-5.30;99.90;;;;;;5106497;27;20083;-82
2021/12/25 07:41:04;;;;;;;2.72;0.60;;;-5.30;99.90;;;;;;5113891;28;20476;-83
2021/12/25 07:43:29;;;;;;;1.95;0.75;;;-5.40;99.90;;;;;;5098913;27;20093;-84
2021/12/25 07:45:55;;;;;;;2.38;0.50;;;-5.30;99.90;;;;;;5079216;27;20094;-80
2021/12/25 07:48:24;;;;;;;1.05;0.65;;;-5.30;99.90;;;;;;5125016;27;20495;-82
2021/12/25 07:50:50;;;;;;;2.05;1.13;;;-5.40;99.90;;;;;;5117861;27;20038;-82
2021/12/25 07:53:19;;;;;;;6.40;0.57;;;-5.30;99.90;;;;;;5133254;27;20042;-82
2021/12/25 07:55:50;;;;;;;1.70;0.55;;;-5.30;99.90;;;;;;5098772;27;20051;-83
2021/12/25 07:58:17;;;;;;;2.15;1.10;;;-5.40;99.90;;;;;;5128389;27;20552;-80
2021/12/25 08:00:44;;;;;;;2.22;0.55;;;-5.40;99.90;;;;;;5095811;27;20118;-80
2021/12/25 08:03:11;;;;;;;2.95;0.65;;;-5.30;99.90;;;;;;5133394;27;20057;-80
2021/12/25 08:05:36;;;;;;;7.75;0.80;;;-5.30;99.90;;;;;;5112891;27;20117;-81
2021/12/25 08:08:03;;;;;;;2.85;0.68;;;-5.30;99.90;;;;;;5130079;27;20046;-78
2021/12/25 08:10:30;;;;;;;1.15;0.43;;;-5.30;99.90;;;;;;5122999;28;20074;-81
2021/12/25 08:12:58;;;;;;;1.83;0.60;;;-5.30;99.90;;;;;;5089379;28;20055;-87
2021/12/25 08:15:26;;;;;;;4.60;0.65;;;-5.30;99.90;;;;;;5118839;27;20042;-85
2021/12/25 08:17:53;;;;;;;6.10;0.73;;;-5.30;99.90;;;;;;5117215;27;20095;-85
2021/12/25 08:20:19;;;;;;;0.98;0.57;;;-5.30;99.90;;;;;;5117534;27;20062;-86
2021/12/25 08:22:45;;;;;;;1.83;0.65;;;-5.30;99.90;;;;;;5117969;27;20077;-83
2021/12/25 08:25:13;;;;;;;2.72;0.60;;;-5.30;99.90;;;;;;5133163;27;20035;-84
2021/12/25 08:27:40;;;;;;;1.95;0.50;;;-5.30;99.90;;;;;;5101184;27;20046;-84
2021/12/25 08:30:10;;;;;;;4.13;0.55;;;-5.30;99.90;;;;;;5134870;27;20459;-83
2021/12/25 08:32:37;;;;;;;3.60;0.68;;;-5.30;99.90;;;;;;5118381;27;20050;-83
2021/12/25 08:35:04;;;;;;;2.53;0.60;;;-5.30;99.90;;;;;;5116218;27;20085;-81
2021/12/25 08:37:31;;;;;;;2.08;0.73;;;-5.30;99.90;;;;;;5113635;27;20057;-80
2021/12/25 08:39:57;;;;;;;3.47;0.70;;;-5.30;99.90;;;;;;5111918;28;20504;-86
2021/12/25 08:42:23;;;;;;;2.38;0.80;;;-5.30;99.90;;;;;;5114051;28;20126;-80
2021/12/25 08:45:19;;;;;;;5.22;0.60;;;-5.30;99.90;;;;;;5110450;28;20498;-79
2021/12/25 08:47:38;;;;;;;3.55;0.70;;;-5.30;99.90;;;;;;5127233;28;20111;-79
2021/12/25 08:50:07;;;;;;;5.40;1.35;;;-5.20;99.90;;;;;;5093046;28;20051;-80
2021/12/25 08:52:33;;;;;;;3.97;0.70;;;-5.20;99.90;;;;;;5109084;27;20042;-79
2021/12/25 08:54:59;;;;;;;3.03;0.77;;;-5.20;99.90;;;;;;5137461;27;20046;-85
2021/12/25 08:57:25;;;;;;;12.05;3.13;;;-5.10;99.90;;;;;;5137268;27;20046;-80
2021/12/25 08:59:52;;;;;;;7.80;2.45;;;-5.00;99.90;;;;;;5138006;27;20131;-82
2021/12/25 09:02:19;;;;;;;3.88;1.77;;;-5.00;99.90;;;;;;5138041;27;20054;-81
2021/12/25 09:04:47;;;;;;;12.68;3.42;;;-5.00;99.90;;;;;;5137986;27;20039;-82
2021/12/25 09:07:14;;;;;;;2.88;1.60;;;-5.00;99.90;;;;;;5153355;27;20039;-78
2021/12/25 09:09:40;;;;;;;3.92;1.42;;;-4.90;99.90;;;;;;5136634;27;20043;-80
2021/12/25 09:12:09;;;;;;;4.65;2.28;;;-4.90;99.90;;;;;;5137650;27;20090;-83
2021/12/25 09:14:36;;;;;;;9.07;4.35;;;-4.80;99.90;;;;;;5136769;27;20095;-85
2021/12/25 09:17:03;;;;;;;5.78;3.22;;;-4.80;99.90;;;;;;5120243;27;20035;-86
2021/12/25 09:19:29;;;;;;;6.35;3.42;;;-4.70;99.90;;;;;;5119631;27;20039;-83
2021/12/25 09:21:55;;;;;;;5.10;2.03;;;-4.70;99.90;;;;;;5086735;27;20506;-82
2021/12/25 09:24:21;;;;;;;3.40;1.30;;;-4.70;99.90;;;;;;5136964;27;20039;-84
2021/12/25 09:26:47;;;;;;;6.47;2.60;;;-4.70;99.90;;;;;;5119028;27;20060;-83
2021/12/25 09:29:13;;;;;;;10.60;3.70;;;-4.70;99.90;;;;;;5118274;27;20082;-85
2021/12/25 09:31:39;;;;;;;4.70;2.40;;;-4.60;99.90;;;;;;5111902;27;20476;-82
2021/12/25 09:34:05;;;;;;;5.05;2.63;;;-4.60;99.90;;;;;;5067766;27;20047;-88
2021/12/25 09:36:32;;;;;;;3.25;1.80;;;-4.60;99.90;;;;;;5135977;27;20039;-80
2021/12/25 09:38:57;;;;;;;3.40;1.00;;;-4.50;99.90;;;;;;5130370;27;20074;-81
2021/12/25 09:41:24;;;;;;;3.25;1.40;;;-4.50;99.90;;;;;;5137219;27;20526;-82
2021/12/25 09:43:50;;;;;;;3.67;1.20;;;-4.40;99.90;;;;;;5137028;27;20090;-81
2021/12/25 09:46:17;;;;;;;6.13;2.50;;;-4.40;99.90;;;;;;5136706;27;20447;-82
2021/12/25 09:48:43;;;;;;;4.15;1.65;;;-4.30;99.90;;;;;;5120437;27;20042;-82
2021/12/25 09:51:09;;;;;;;4.38;1.40;;;-4.30;99.90;;;;;;5120262;27;20122;-86
2021/12/25 09:53:35;;;;;;;7.30;0.80;;;-4.30;99.90;;;;;;5119533;27;20141;-82
2021/12/25 09:56:02;;;;;;;1.67;0.90;;;-4.20;99.90;;;;;;5087356;27;20074;-82
2021/12/25 09:58:28;;;;;;;3.80;1.00;;;-4.10;99.90;;;;;;5120287;27;20042;-81
2021/12/25 10:00:54;;;;;;;3.40;1.50;;;-4.10;99.90;;;;;;5120001;27;20069;-81
2021/12/25 10:03:20;;;;;;;5.60;1.27;;;-4.00;99.90;;;;;;5136126;27;20637;-80
2021/12/25 10:05:48;;;;;;;4.57;1.20;;;-4.00;99.90;;;;;;5137339;27;20492;-80
2021/12/25 10:08:20;;;;;;;5.70;1.70;;;-4.00;99.90;;;;;;5136236;27;20072;-81
2021/12/25 10:10:47;;;;;;;3.00;1.20;;;-4.00;99.90;;;;;;5119727;27;20054;-80
2021/12/25 10:13:26;;;;;;;5.53;1.63;;;-3.90;99.90;;;;;;5120303;27;20519;-86
2021/12/25 10:15:55;;;;;;;7.55;2.97;;;-3.90;99.90;;;;;;5137932;27;20054;-82
2021/12/25 10:18:27;;;;;;;5.13;2.83;;;-3.80;99.90;;;;;;5117142;27;20039;-79
2021/12/25 10:20:53;;;;;;;3.53;1.70;;;-3.80;99.90;;;;;;5119855;27;20113;-89
2021/12/25 10:23:25;;;;;;;3.65;1.25;;;-3.80;99.90;;;;;;5119302;27;20487;-82
2021/12/25 10:25:55;;;;;;;4.10;1.80;;;-3.80;99.90;;;;;;5135614;27;20118;-81
2021/12/25 10:28:38;;;;;;;3.17;1.50;;;-3.80;99.90;;;;;;5097211;27;20046;-82
2021/12/25 10:31:16;;;;;;;4.85;1.55;;;-3.70;99.90;;;;;;5116423;27;20122;-81
2021/12/25 10:33:50;;;;;;;7.97;3.97;;;-3.70;99.90;;;;;;5100190;27;20043;-82
2021/12/25 10:36:36;;;;;;;6.13;2.33;;;-3.60;99.90;;;;;;5107031;27;20380;-86
2021/12/25 10:39:04;;;;;;;9.00;3.38;;;-3.60;99.90;;;;;;5118677;27;20042;-82
2021/12/25 10:41:34;;;;;;;3.75;1.48;;;-3.60;99.90;;;;;;5134554;27;20050;-85
2021/12/25 10:44:22;;;;;;;8.32;2.65;;;-3.60;99.90;;;;;;5118332;27;20078;-82
2021/12/25 10:47:00;;;;;;;6.30;2.90;;;-3.60;99.90;;;;;;5118507;27;20050;-82
2021/12/25 10:49:30;;;;;;;7.40;3.40;;;-3.50;99.90;;;;;;5115250;27;20085;-80
2021/12/25 10:52:14;;;;;;;4.70;3.28;;;-3.50;99.90;;;;;;5118287;27;20126;-81
2021/12/25 10:54:47;;;;;;;17.80;9.25;;;-3.50;99.90;;;;;;5118162;27;20119;-80
2021/12/25 10:57:38;;;;;;;10.70;3.45;;;-3.40;99.90;;;;;;5118020;27;20061;-85
2021/12/25 11:00:30;;;;;;;4.57;2.50;;;-3.40;99.90;;;;;;5135766;27;20050;-83
2021/12/25 11:03:03;;;;;;;7.97;4.05;;;-3.30;99.90;;;;;;5109264;27;20499;-80
2021/12/25 11:05:43;;;;;;;2.72;1.45;;;-3.30;99.90;;;;;;5133673;27;20125;-82
2021/12/25 11:08:24;;;;;;;1.52;0.80;;;-3.30;99.90;;;;;;5135766;27;20095;-83
2021/12/25 11:10:53;;;;;;;3.33;2.33;;;-3.30;99.90;;;;;;5135413;27;20084;-85
2021/12/25 11:13:24;;;;;;;1.75;1.10;;;-3.30;99.90;;;;;;5132678;27;20043;-90
2021/12/25 11:16:20;;;;;;;2.13;1.17;;;-3.30;99.90;;;;;;5134382;27;20054;-88
2021/12/25 11:19:08;;;;;;;3.72;0.70;;;-3.20;99.90;;;;;;5109241;27;20043;-86
2021/12/25 11:21:43;;;;;;;5.43;2.38;;;-3.20;99.90;;;;;;5100687;27;20050;-84
2021/12/25 11:24:15;;;;;;;2.75;0.70;;;-3.20;99.90;;;;;;5113658;27;20076;-80
2021/12/25 11:26:43;;;;;;;1.67;0.70;;;-3.20;99.90;;;;;;5152774;27;20114;-80
2021/12/25 11:29:13;;;;;;;7.95;1.13;;;-3.20;99.90;;;;;;5131598;27;20085;-80
2021/12/25 11:31:40;;;;;;;4.85;1.00;;;-3.20;99.90;;;;;;5116772;27;20151;-78
2021/12/25 11:34:07;;;;;;;2.53;1.10;;;-3.20;99.90;;;;;;5108040;27;20047;-78
2021/12/25 11:36:36;;;;;;;1.70;1.60;;;-3.20;99.90;;;;;;5126808;27;20035;-77
2021/12/25 11:39:05;;;;;;;3.20;1.20;;;-3.10;99.90;;;;;;5111953;27;20054;-79
2021/12/25 11:41:32;;;;;;;4.45;1.90;;;-3.10;99.90;;;;;;5133067;27;20068;-79
2021/12/25 11:43:57;;;;;;;4.07;1.58;;;-3.10;99.90;;;;;;5116373;27;20046;-78
2021/12/25 11:46:37;;;;;;;5.82;1.48;;;-3.10;99.90;;;;;;5116240;27;20053;-84
2021/12/25 11:49:09;;;;;;;5.03;1.95;;;-3.00;99.90;;;;;;5134573;27;20046;-80
2021/12/25 11:51:35;;;;;;;3.83;1.52;;;-3.10;99.90;;;;;;5133042;27;20047;-79
2021/12/25 11:56:47;;;;;;;3.65;0.93;;;-3.10;99.90;;;;;;5131120;27;20073;-88
2021/12/25 11:59:17;;;;;;;1.50;0.80;;;-3.00;99.90;;;;;;5134084;27;20054;-80
2021/12/25 12:01:46;;;;;;;4.38;2.30;;;-3.00;99.90;;;;;;5133387;27;20153;-80
2021/12/25 12:04:13;;;;;;;3.00;1.30;;;-3.00;99.90;;;;;;5110995;27;20043;-78
2021/12/25 12:06:45;;;;;;;1.73;0.93;;;-3.00;99.90;;;;;;5134403;27;20499;-82
2021/12/25 12:09:12;;;;;;;4.10;0.95;;;-3.00;99.90;;;;;;5130896;27;20127;-83
2021/12/25 12:11:41;;;;;;;2.42;1.20;;;-3.00;99.90;;;;;;5115507;27;20045;-81
2021/12/25 12:14:27;;;;;;;9.93;1.83;;;-3.00;99.90;;;;;;5133244;27;20053;-83
2021/12/25 12:16:52;;;;;;;3.95;1.80;;;-2.90;99.90;;;;;;5121555;28;20122;-82
2021/12/25 12:19:35;;;;;;;2.63;1.63;;;-2.90;99.90;;;;;;5131216;27;20805;-80
2021/12/25 12:22:40;;;;;;;3.88;1.02;;;-2.90;99.90;;;;;;5131970;27;20039;-84
2021/12/25 12:25:43;;;;;;;2.55;1.40;;;-2.90;99.90;;;;;;5134736;27;20043;-81
2021/12/25 12:28:09;;;;;;;3.17;1.38;;;-2.90;99.90;;;;;;5137611;27;20043;-83
2021/12/25 12:30:41;;;;;;;4.05;1.80;;;-2.90;99.90;;;;;;5120937;27;20049;-87
2021/12/25 12:33:17;;;;;;;1.00;0.80;;;-2.90;99.90;;;;;;5121190;27;20161;-81
2021/12/25 12:35:48;;;;;;;2.78;1.05;;;-2.90;99.90;;;;;;5138532;27;20432;-81
2021/12/25 12:38:35;;;;;;;2.38;1.70;;;-2.80;99.90;;;;;;5134025;27;20039;-83
2021/12/25 12:41:38;;;;;;;2.22;1.73;;;-2.80;99.90;;;;;;5121493;27;20099;-80
2021/12/25 12:44:26;;;;;;;2.15;0.68;;;-2.80;99.90;;;;;;5119768;27;20046;-77
2021/12/25 12:46:52;;;;;;;3.05;0.65;;;-2.80;99.90;;;;;;5118823;27;20789;-78
2021/12/25 12:49:33;;;;;;;2.55;0.60;;;-2.80;99.90;;;;;;5118440;27;20053;-79
2021/12/25 12:52:38;;;;;;;2.33;0.50;;;-2.80;99.90;;;;;;5135754;27;20065;-79
2021/12/25 12:55:04;;;;;;;1.90;0.50;;;-2.80;99.90;;;;;;5117151;27;20394;-81
2021/12/25 12:57:34;;;;;;;4.07;0.90;;;-2.80;99.90;;;;;;5108262;27;20046;-81
2021/12/25 13:00:14;;;;;;;5.50;1.40;;;-2.80;99.90;;;;;;5137290;27;20047;-82
2021/12/25 13:02:43;;;;;;;4.57;2.10;;;-2.80;99.90;;;;;;5119576;27;20035;-79
2021/12/25 13:05:10;;;;;;;1.52;0.70;;;-2.80;99.90;;;;;;5099667;27;20160;-81
2021/12/25 13:07:39;;;;;;;2.03;0.95;;;-2.90;99.90;;;;;;5114418;27;20054;-87
2021/12/25 13:10:19;;;;;;;1.40;0.70;;;-2.80;99.90;;;;;;5137481;27;20042;-78
2021/12/25 13:12:47;;;;;;;4.20;1.10;;;-2.80;99.90;;;;;;5134318;27;20050;-78
2021/12/25 13:15:18;;;;;;;7.65;1.05;;;-2.80;99.90;;;;;;5120199;27;20749;-80
2021/12/25 13:18:11;;;;;;;5.13;2.05;;;-2.80;99.90;;;;;;5136966;27;20558;-81
2021/12/25 13:20:47;;;;;;;8.07;1.65;;;-2.90;99.90;;;;;;5109784;27;20059;-89
2021/12/25 13:23:20;;;;;;;;;;;-2.80;99.90;;;;;;5120457;27;20051;-79
2021/12/25 13:25:53;;;;;;;6.30;2.35;;;-2.90;99.90;;;;;;5120004;27;19923;-82
2021/12/25 13:28:21;;;;;;;3.67;0.90;;;-2.90;99.90;;;;;;5121725;27;20053;-84
2021/12/25 13:30:51;;;;;;;3.78;1.13;;;-2.80;99.90;;;;;;5120574;27;20119;-82
2021/12/25 13:33:21;;;;;;;4.85;0.98;;;-2.80;99.90;;;;;;5138896;27;20118;-81
2021/12/25 13:35:58;;;;;;;3.72;0.95;;;-2.70;99.90;;;;;;5137538;27;20509;-81
2021/12/25 13:38:24;;;;;;;1.50;0.60;;;-2.80;99.90;;;;;;5119919;27;20047;-80
2021/12/25 13:40:51;;;;;;;2.05;0.73;;;-2.80;99.90;;;;;;5102347;27;20046;-81
2021/12/25 13:43:18;;;;;;;2.47;0.90;;;-2.80;99.90;;;;;;5136720;27;20046;-80
2021/12/25 13:45:43;;;;;;;2.90;0.77;;;-2.80;99.90;;;;;;5119628;27;20038;-83
2021/12/25 13:48:09;;;;;;;2.03;1.25;;;-2.90;99.90;;;;;;5116875;27;20047;-82
2021/12/25 13:50:35;;;;;;;2.35;1.35;;;-2.90;99.90;;;;;;5088464;27;20043;-83
2021/12/25 13:53:06;;;;;;;3.00;0.70;;;-2.90;99.90;;;;;;5098596;27;20054;-82
2021/12/25 13:55:35;;;;;;;2.08;0.95;;;-2.90;99.90;;;;;;5135083;27;20038;-83
2021/12/25 13:58:09;;;;;;;3.88;1.10;;;-2.80;99.90;;;;;;5098992;27;20073;-80
2021/12/25 14:00:39;;;;;;;5.20;1.00;;;-2.80;99.90;;;;;;5118211;27;20050;-78
2021/12/25 14:03:09;;;;;;;2.08;1.10;;;-2.80;99.90;;;;;;5118073;27;20356;-80
2021/12/25 14:05:38;;;;;;;3.22;0.90;;;-2.90;99.90;;;;;;5118667;27;20050;-80
2021/12/25 14:08:04;;;;;;;5.00;0.80;;;-2.90;99.90;;;;;;5119567;27;20196;-82
2021/12/25 14:10:32;;;;;;;8.60;2.90;;;-2.90;99.90;;;;;;5103097;27;20528;-79
2021/12/25 14:13:00;;;;;;;1.92;0.85;;;-2.90;99.90;;;;;;5126528;27;20055;-79
2021/12/25 14:15:30;;;;;;;2.90;0.90;;;-3.00;99.90;;;;;;5119824;27;20133;-81
2021/12/25 14:17:56;;;;;;;2.88;0.77;;;-3.00;99.90;;;;;;5118853;27;20046;-81